Overview Statistics Trail Chart Weather Telemetry Raw packets
 

This is the latest recevied weather packets stored in our database for station/object OE1HTB-13. If no packets are shown the sender has not sent any weather packets the latest 10 day(s).

<< 1 2 3 4 5 6 >>
Time Temp. Humidity Pressure Rain* Wind** Luminosity Snow
1788526873 31.11° C 37% 1014.1 hPa 0 mm - 468 W/m² -
1788525973 30.56° C 38% 1014.3 hPa 0 mm - 629 W/m² -
1788525074 30° C 38% 1014.6 hPa 0 mm - 490 W/m² -
1788524173 30.56° C 37% 1014.9 hPa 0 mm - 533 W/m² -
1788523273 30.56° C 37% 1014.9 hPa 0 mm - 698 W/m² -
1788522372 30.56° C 37% 1015.1 hPa 0 mm - 691 W/m² -
1788521472 30.56° C 38% 1015.2 hPa 0 mm - 619 W/m² -
1788520573 30° C 39% 1015.3 hPa 0 mm - 554 W/m² -
1788519673 30° C 39% 1015.6 hPa 0 mm - 696 W/m² -
1788518772 31.67° C 39% 1015.7 hPa 0 mm - 598 W/m² -
1788517871 29.44° C 41% 1015.7 hPa 0 mm - 670 W/m² -
1788516972 27.78° C 43% 1016.1 hPa 0 mm - 415 W/m² -
1788516071 29.44° C 40% 1016.6 hPa 0 mm - 564 W/m² -
1788515171 28.33° C 43% 1016.9 hPa 0 mm - 613 W/m² -
1788514271 28.33° C 45% 1017.2 hPa 0 mm - 680 W/m² -
1788513371 27.22° C 46% 1017.3 hPa 0 mm - 770 W/m² -
1788512471 27.22° C 47% 1017.5 hPa 0 mm - 793 W/m² -
1788511571 26.67° C 49% 1017.7 hPa 0 mm - 605 W/m² -
1788510671 24.44° C 53% 1017.9 hPa 0 mm - 225 W/m² -
1788509770 23.89° C 53% 1017.8 hPa 0 mm - 404 W/m² -
1788508870 24.44° C 52% 1017.9 hPa 0 mm - 262 W/m² -
1788507970 25.56° C 51% 1017.8 hPa 0 mm - 650 W/m² -
1788507070 25.56° C 52% 1017.9 hPa 0 mm - 617 W/m² -
1788506170 24.44° C 53% 1017.9 hPa 0 mm - 311 W/m² -
1788505271 22.22° C 60% 1018 hPa 0 mm - 202 W/m² -

* Rain latest hour (hover to see other rain measurements)
** Current wind speed in m/s (hover to see current wind gust speed)